sensor_id;sensor_type;location;lat;lon;timestamp;temperature;humidity
40756;DHT22;26461;45.630;9.418;2023-05-15T00:00:17;14.30;99.90
40756;DHT22;26461;45.630;9.418;2023-05-15T00:03:38;14.20;99.90
40756;DHT22;26461;45.630;9.418;2023-05-15T00:06:49;14.10;99.90
40756;DHT22;26461;45.630;9.418;2023-05-15T00:10:05;14.10;99.90
40756;DHT22;26461;45.630;9.418;2023-05-15T00:13:18;14.10;99.90
40756;DHT22;26461;45.630;9.418;2023-05-15T00:16:35;14.10;99.90
40756;DHT22;26461;45.630;9.418;2023-05-15T00:19:58;14.00;99.90
40756;DHT22;26461;45.630;9.418;2023-05-15T00:23:22;14.00;99.90
40756;DHT22;26461;45.630;9.418;2023-05-15T00:26:36;14.00;99.90
40756;DHT22;26461;45.630;9.418;2023-05-15T00:29:53;14.00;99.90
40756;DHT22;26461;45.630;9.418;2023-05-15T00:33:11;14.00;99.90
40756;DHT22;26461;45.630;9.418;2023-05-15T00:36:32;14.00;99.90
40756;DHT22;26461;45.630;9.418;2023-05-15T00:39:47;14.00;99.90
40756;DHT22;26461;45.630;9.418;2023-05-15T00:43:03;14.00;99.90
40756;DHT22;26461;45.630;9.418;2023-05-15T00:46:22;14.00;99.90
40756;DHT22;26461;45.630;9.418;2023-05-15T00:49:39;14.00;99.90
40756;DHT22;26461;45.630;9.418;2023-05-15T00:52:56;14.00;99.90
40756;DHT22;26461;45.630;9.418;2023-05-15T00:56:18;14.00;99.90
40756;DHT22;26461;45.630;9.418;2023-05-15T00:59:28;14.00;99.90
40756;DHT22;26461;45.630;9.418;2023-05-15T01:02:45;14.00;99.90
40756;DHT22;26461;45.630;9.418;2023-05-15T01:06:01;14.00;99.90
40756;DHT22;26461;45.630;9.418;2023-05-15T01:09:23;14.00;99.90
40756;DHT22;26461;45.630;9.418;2023-05-15T01:12:29;14.00;99.90
40756;DHT22;26461;45.630;9.418;2023-05-15T01:15:49;14.00;99.90
40756;DHT22;26461;45.630;9.418;2023-05-15T01:19:04;14.00;99.90
40756;DHT22;26461;45.630;9.418;2023-05-15T01:22:54;14.00;99.90
40756;DHT22;26461;45.630;9.418;2023-05-15T01:26:27;13.90;99.90
40756;DHT22;26461;45.630;9.418;2023-05-15T01:30:03;13.90;99.90
40756;DHT22;26461;45.630;9.418;2023-05-15T01:33:31;13.90;99.90
40756;DHT22;26461;45.630;9.418;2023-05-15T01:36:55;13.80;99.90
40756;DHT22;26461;45.630;9.418;2023-05-15T01:40:17;13.80;99.90
40756;DHT22;26461;45.630;9.418;2023-05-15T01:43:32;13.80;99.90
40756;DHT22;26461;45.630;9.418;2023-05-15T01:47:00;13.70;99.90
40756;DHT22;26461;45.630;9.418;2023-05-15T01:50:22;13.70;99.90
40756;DHT22;26461;45.630;9.418;2023-05-15T01:53:31;13.60;99.90
40756;DHT22;26461;45.630;9.418;2023-05-15T01:56:49;13.80;99.90
40756;DHT22;26461;45.630;9.418;2023-05-15T02:00:13;13.60;99.90
40756;DHT22;26461;45.630;9.418;2023-05-15T02:03:31;13.60;99.90
40756;DHT22;26461;45.630;9.418;2023-05-15T02:06:50;13.60;99.90
40756;DHT22;26461;45.630;9.418;2023-05-15T02:10:10;13.50;99.90
40756;DHT22;26461;45.630;9.418;2023-05-15T02:13:27;13.50;99.90
40756;DHT22;26461;45.630;9.418;2023-05-15T02:16:49;13.50;99.90
40756;DHT22;26461;45.630;9.418;2023-05-15T02:20:05;13.50;99.90
40756;DHT22;26461;45.630;9.418;2023-05-15T02:23:17;13.50;99.90
40756;DHT22;26461;45.630;9.418;2023-05-15T02:30:42;13.40;99.90
40756;DHT22;26461;45.630;9.418;2023-05-15T02:34:26;13.40;99.90
40756;DHT22;26461;45.630;9.418;2023-05-15T02:37:34;13.40;99.90
40756;DHT22;26461;45.630;9.418;2023-05-15T02:40:57;13.40;99.90
40756;DHT22;26461;45.630;9.418;2023-05-15T02:44:11;13.40;99.90
40756;DHT22;26461;45.630;9.418;2023-05-15T02:47:21;13.40;99.90
40756;DHT22;26461;45.630;9.418;2023-05-15T02:50:42;13.40;99.90
40756;DHT22;26461;45.630;9.418;2023-05-15T02:54:01;13.30;99.90
40756;DHT22;26461;45.630;9.418;2023-05-15T02:57:12;13.20;99.90
40756;DHT22;26461;45.630;9.418;2023-05-15T03:00:26;13.20;99.90
40756;DHT22;26461;45.630;9.418;2023-05-15T03:03:31;13.10;99.90
40756;DHT22;26461;45.630;9.418;2023-05-15T03:06:42;13.10;99.90
40756;DHT22;26461;45.630;9.418;2023-05-15T03:09:58;13.10;99.90
40756;DHT22;26461;45.630;9.418;2023-05-15T03:13:18;13.10;99.90
40756;DHT22;26461;45.630;9.418;2023-05-15T03:16:40;13.10;99.90
40756;DHT22;26461;45.630;9.418;2023-05-15T03:20:01;13.10;99.90
40756;DHT22;26461;45.630;9.418;2023-05-15T03:23:22;13.00;99.90
40756;DHT22;26461;45.630;9.418;2023-05-15T03:26:38;13.00;99.90
40756;DHT22;26461;45.630;9.418;2023-05-15T03:29:57;12.90;99.90
40756;DHT22;26461;45.630;9.418;2023-05-15T03:33:11;12.90;99.90
40756;DHT22;26461;45.630;9.418;2023-05-15T03:36:27;12.80;99.90
40756;DHT22;26461;45.630;9.418;2023-05-15T03:39:41;12.80;99.90
40756;DHT22;26461;45.630;9.418;2023-05-15T03:42:51;12.80;99.90
40756;DHT22;26461;45.630;9.418;2023-05-15T03:45:58;12.80;99.90
40756;DHT22;26461;45.630;9.418;2023-05-15T03:49:08;12.80;99.90
40756;DHT22;26461;45.630;9.418;2023-05-15T03:52:26;12.80;99.90
40756;DHT22;26461;45.630;9.418;2023-05-15T03:55:49;12.80;99.90
40756;DHT22;26461;45.630;9.418;2023-05-15T03:58:57;12.80;99.90
40756;DHT22;26461;45.630;9.418;2023-05-15T04:02:15;12.90;99.90
40756;DHT22;26461;45.630;9.418;2023-05-15T04:05:33;12.90;99.90
40756;DHT22;26461;45.630;9.418;2023-05-15T04:08:43;12.90;99.90
40756;DHT22;26461;45.630;9.418;2023-05-15T04:11:59;12.90;99.90
40756;DHT22;26461;45.630;9.418;2023-05-15T04:15:21;12.90;99.90
40756;DHT22;26461;45.630;9.418;2023-05-15T04:18:40;12.80;99.90
40756;DHT22;26461;45.630;9.418;2023-05-15T04:22:03;12.90;99.90
40756;DHT22;26461;45.630;9.418;2023-05-15T04:25:19;12.80;99.90
40756;DHT22;26461;45.630;9.418;2023-05-15T04:28:39;12.80;99.90
40756;DHT22;26461;45.630;9.418;2023-05-15T04:31:55;12.80;99.90
40756;DHT22;26461;45.630;9.418;2023-05-15T04:35:14;12.70;99.90
40756;DHT22;26461;45.630;9.418;2023-05-15T04:38:26;12.80;99.90
40756;DHT22;26461;45.630;9.418;2023-05-15T04:41:40;12.80;99.90
40756;DHT22;26461;45.630;9.418;2023-05-15T04:44:56;12.80;99.90
40756;DHT22;26461;45.630;9.418;2023-05-15T04:48:19;12.80;99.90
40756;DHT22;26461;45.630;9.418;2023-05-15T04:51:32;12.80;99.90
40756;DHT22;26461;45.630;9.418;2023-05-15T04:54:45;12.80;99.90
40756;DHT22;26461;45.630;9.418;2023-05-15T04:57:59;12.90;99.90
40756;DHT22;26461;45.630;9.418;2023-05-15T05:01:12;12.90;99.90
40756;DHT22;26461;45.630;9.418;2023-05-15T05:04:31;13.00;99.90
40756;DHT22;26461;45.630;9.418;2023-05-15T05:07:36;13.00;99.90
40756;DHT22;26461;45.630;9.418;2023-05-15T05:11:01;13.00;99.90
40756;DHT22;26461;45.630;9.418;2023-05-15T05:14:17;13.10;99.90
40756;DHT22;26461;45.630;9.418;2023-05-15T05:17:33;13.10;99.90
40756;DHT22;26461;45.630;9.418;2023-05-15T05:20:57;13.10;99.90
40756;DHT22;26461;45.630;9.418;2023-05-15T05:24:19;13.10;99.90
40756;DHT22;26461;45.630;9.418;2023-05-15T05:27:34;13.20;99.90
40756;DHT22;26461;45.630;9.418;2023-05-15T05:30:54;13.30;99.90
40756;DHT22;26461;45.630;9.418;2023-05-15T05:34:02;13.30;99.90
40756;DHT22;26461;45.630;9.418;2023-05-15T05:37:21;13.40;99.90
40756;DHT22;26461;45.630;9.418;2023-05-15T05:40:31;13.40;99.90
40756;DHT22;26461;45.630;9.418;2023-05-15T05:43:56;13.50;99.90
40756;DHT22;26461;45.630;9.418;2023-05-15T05:47:10;13.50;99.90
40756;DHT22;26461;45.630;9.418;2023-05-15T05:50:20;13.50;99.90
40756;DHT22;26461;45.630;9.418;2023-05-15T05:53:34;13.60;99.90
40756;DHT22;26461;45.630;9.418;2023-05-15T05:56:47;13.70;99.90
40756;DHT22;26461;45.630;9.418;2023-05-15T06:00:08;13.70;99.90
40756;DHT22;26461;45.630;9.418;2023-05-15T06:03:23;13.80;99.90
40756;DHT22;26461;45.630;9.418;2023-05-15T06:06:44;13.80;99.90
40756;DHT22;26461;45.630;9.418;2023-05-15T06:09:54;13.90;99.90
40756;DHT22;26461;45.630;9.418;2023-05-15T06:13:11;13.90;99.90
40756;DHT22;26461;45.630;9.418;2023-05-15T06:16:26;13.90;99.90
40756;DHT22;26461;45.630;9.418;2023-05-15T06:19:36;14.00;99.90
40756;DHT22;26461;45.630;9.418;2023-05-15T06:22:50;14.00;99.90
40756;DHT22;26461;45.630;9.418;2023-05-15T06:26:00;14.00;99.90
40756;DHT22;26461;45.630;9.418;2023-05-15T06:29:13;14.00;99.90
40756;DHT22;26461;45.630;9.418;2023-05-15T06:32:24;14.10;99.90
40756;DHT22;26461;45.630;9.418;2023-05-15T06:35:38;14.10;99.90
40756;DHT22;26461;45.630;9.418;2023-05-15T06:38:48;14.20;99.90
40756;DHT22;26461;45.630;9.418;2023-05-15T06:41:54;14.20;99.90
40756;DHT22;26461;45.630;9.418;2023-05-15T06:45:10;14.30;99.90
40756;DHT22;26461;45.630;9.418;2023-05-15T06:48:24;14.30;99.90
40756;DHT22;26461;45.630;9.418;2023-05-15T06:51:40;14.40;99.90
40756;DHT22;26461;45.630;9.418;2023-05-15T06:54:50;14.40;99.90
40756;DHT22;26461;45.630;9.418;2023-05-15T06:57:56;14.40;99.90
40756;DHT22;26461;45.630;9.418;2023-05-15T07:01:16;14.50;99.90
40756;DHT22;26461;45.630;9.418;2023-05-15T07:04:29;14.50;99.90
40756;DHT22;26461;45.630;9.418;2023-05-15T07:07:40;14.50;99.90
40756;DHT22;26461;45.630;9.418;2023-05-15T07:10:53;14.60;99.90
40756;DHT22;26461;45.630;9.418;2023-05-15T07:14:10;14.60;99.90
40756;DHT22;26461;45.630;9.418;2023-05-15T07:17:20;14.60;99.90
40756;DHT22;26461;45.630;9.418;2023-05-15T07:20:38;14.60;99.90
40756;DHT22;26461;45.630;9.418;2023-05-15T07:23:59;14.60;99.90
40756;DHT22;26461;45.630;9.418;2023-05-15T07:27:15;14.70;99.90
40756;DHT22;26461;45.630;9.418;2023-05-15T07:30:37;15.00;99.90
40756;DHT22;26461;45.630;9.418;2023-05-15T07:33:48;14.70;99.90
40756;DHT22;26461;45.630;9.418;2023-05-15T07:37:13;14.70;99.90
40756;DHT22;26461;45.630;9.418;2023-05-15T07:40:23;14.80;99.90
40756;DHT22;26461;45.630;9.418;2023-05-15T07:43:34;14.80;99.90
40756;DHT22;26461;45.630;9.418;2023-05-15T07:46:50;14.80;99.90
40756;DHT22;26461;45.630;9.418;2023-05-15T07:50:04;14.80;99.90
40756;DHT22;26461;45.630;9.418;2023-05-15T07:53:22;14.80;99.90
40756;DHT22;26461;45.630;9.418;2023-05-15T07:56:38;14.80;99.90
40756;DHT22;26461;45.630;9.418;2023-05-15T07:59:52;14.90;99.90
40756;DHT22;26461;45.630;9.418;2023-05-15T08:03:18;14.90;99.90
40756;DHT22;26461;45.630;9.418;2023-05-15T08:06:35;14.90;99.90
40756;DHT22;26461;45.630;9.418;2023-05-15T08:09:43;14.90;99.90
40756;DHT22;26461;45.630;9.418;2023-05-15T08:12:48;15.00;99.90
40756;DHT22;26461;45.630;9.418;2023-05-15T08:16:03;15.00;99.90
40756;DHT22;26461;45.630;9.418;2023-05-15T08:19:20;15.00;99.90
40756;DHT22;26461;45.630;9.418;2023-05-15T08:22:32;15.10;99.90
40756;DHT22;26461;45.630;9.418;2023-05-15T08:25:43;15.10;99.90
40756;DHT22;26461;45.630;9.418;2023-05-15T08:29:03;15.20;99.90
40756;DHT22;26461;45.630;9.418;2023-05-15T08:32:15;15.20;99.90
40756;DHT22;26461;45.630;9.418;2023-05-15T08:35:36;15.30;99.90
40756;DHT22;26461;45.630;9.418;2023-05-15T08:38:46;15.30;99.90
40756;DHT22;26461;45.630;9.418;2023-05-15T08:45:26;15.40;99.90
40756;DHT22;26461;45.630;9.418;2023-05-15T08:48:41;15.40;99.90
40756;DHT22;26461;45.630;9.418;2023-05-15T08:51:59;15.40;99.90
40756;DHT22;26461;45.630;9.418;2023-05-15T08:55:13;15.50;99.90
40756;DHT22;26461;45.630;9.418;2023-05-15T08:58:22;15.50;99.90
40756;DHT22;26461;45.630;9.418;2023-05-15T09:01:38;15.50;99.90
40756;DHT22;26461;45.630;9.418;2023-05-15T09:04:55;15.60;99.90
40756;DHT22;26461;45.630;9.418;2023-05-15T09:08:11;15.60;99.90
40756;DHT22;26461;45.630;9.418;2023-05-15T09:11:25;15.70;99.90
40756;DHT22;26461;45.630;9.418;2023-05-15T09:14:42;15.70;99.90
40756;DHT22;26461;45.630;9.418;2023-05-15T09:17:58;15.80;99.90
40756;DHT22;26461;45.630;9.418;2023-05-15T09:21:25;15.80;99.90
40756;DHT22;26461;45.630;9.418;2023-05-15T09:24:44;15.90;99.90
40756;DHT22;26461;45.630;9.418;2023-05-15T09:28:00;15.90;99.90
40756;DHT22;26461;45.630;9.418;2023-05-15T09:31:10;16.00;99.90
40756;DHT22;26461;45.630;9.418;2023-05-15T09:34:15;16.10;99.90
40756;DHT22;26461;45.630;9.418;2023-05-15T09:37:32;16.10;99.90
40756;DHT22;26461;45.630;9.418;2023-05-15T09:40:48;16.20;99.90
40756;DHT22;26461;45.630;9.418;2023-05-15T09:43:59;16.20;99.90
40756;DHT22;26461;45.630;9.418;2023-05-15T09:47:07;16.30;99.90
40756;DHT22;26461;45.630;9.418;2023-05-15T09:50:22;16.30;99.90
40756;DHT22;26461;45.630;9.418;2023-05-15T09:53:36;16.40;99.90
40756;DHT22;26461;45.630;9.418;2023-05-15T09:56:53;16.50;99.90
40756;DHT22;26461;45.630;9.418;2023-05-15T10:00:07;16.50;99.90
40756;DHT22;26461;45.630;9.418;2023-05-15T10:03:17;16.60;99.90
40756;DHT22;26461;45.630;9.418;2023-05-15T10:06:48;16.60;99.90
40756;DHT22;26461;45.630;9.418;2023-05-15T10:09:56;16.70;99.90
40756;DHT22;26461;45.630;9.418;2023-05-15T10:13:08;16.80;99.90
40756;DHT22;26461;45.630;9.418;2023-05-15T10:16:23;16.80;99.90
40756;DHT22;26461;45.630;9.418;2023-05-15T10:19:37;16.80;99.90
40756;DHT22;26461;45.630;9.418;2023-05-15T10:22:55;16.80;99.90
40756;DHT22;26461;45.630;9.418;2023-05-15T10:26:13;16.80;99.90
40756;DHT22;26461;45.630;9.418;2023-05-15T10:29:29;16.90;99.90
40756;DHT22;26461;45.630;9.418;2023-05-15T10:32:47;16.90;99.90
40756;DHT22;26461;45.630;9.418;2023-05-15T10:36:02;17.00;99.90
40756;DHT22;26461;45.630;9.418;2023-05-15T10:39:17;17.00;99.90
40756;DHT22;26461;45.630;9.418;2023-05-15T10:42:30;17.00;99.90
40756;DHT22;26461;45.630;9.418;2023-05-15T10:45:47;17.00;99.90
40756;DHT22;26461;45.630;9.418;2023-05-15T10:48:59;17.10;99.90
40756;DHT22;26461;45.630;9.418;2023-05-15T10:52:12;17.10;99.90
40756;DHT22;26461;45.630;9.418;2023-05-15T10:55:25;17.20;99.90
40756;DHT22;26461;45.630;9.418;2023-05-15T10:58:33;17.20;99.90
40756;DHT22;26461;45.630;9.418;2023-05-15T11:01:54;17.30;99.90
40756;DHT22;26461;45.630;9.418;2023-05-15T11:05:07;17.30;99.90
40756;DHT22;26461;45.630;9.418;2023-05-15T11:08:33;17.30;99.90
40756;DHT22;26461;45.630;9.418;2023-05-15T11:11:58;17.30;99.90
40756;DHT22;26461;45.630;9.418;2023-05-15T11:18:19;17.40;99.90
40756;DHT22;26461;45.630;9.418;2023-05-15T11:21:44;17.50;99.90
40756;DHT22;26461;45.630;9.418;2023-05-15T11:25:04;17.50;99.90
40756;DHT22;26461;45.630;9.418;2023-05-15T11:28:23;17.50;99.90
40756;DHT22;26461;45.630;9.418;2023-05-15T11:31:39;17.60;99.90
40756;DHT22;26461;45.630;9.418;2023-05-15T11:34:48;17.60;99.90
40756;DHT22;26461;45.630;9.418;2023-05-15T11:41:33;17.70;99.90
40756;DHT22;26461;45.630;9.418;2023-05-15T11:44:45;17.80;99.90
40756;DHT22;26461;45.630;9.418;2023-05-15T11:48:00;17.80;99.90
40756;DHT22;26461;45.630;9.418;2023-05-15T11:51:18;17.90;99.90
40756;DHT22;26461;45.630;9.418;2023-05-15T11:54:30;18.00;99.90
40756;DHT22;26461;45.630;9.418;2023-05-15T11:57:41;18.00;99.90
40756;DHT22;26461;45.630;9.418;2023-05-15T12:00:56;18.10;99.90
40756;DHT22;26461;45.630;9.418;2023-05-15T12:04:14;18.10;99.90
40756;DHT22;26461;45.630;9.418;2023-05-15T12:07:26;18.10;99.90
40756;DHT22;26461;45.630;9.418;2023-05-15T12:10:40;18.20;99.90
40756;DHT22;26461;45.630;9.418;2023-05-15T12:13:54;18.20;99.90
40756;DHT22;26461;45.630;9.418;2023-05-15T12:17:12;18.20;99.90
40756;DHT22;26461;45.630;9.418;2023-05-15T12:20:26;18.30;99.90
40756;DHT22;26461;45.630;9.418;2023-05-15T12:23:35;18.30;99.90
40756;DHT22;26461;45.630;9.418;2023-05-15T12:26:54;18.30;99.90
40756;DHT22;26461;45.630;9.418;2023-05-15T12:30:08;18.30;99.90
40756;DHT22;26461;45.630;9.418;2023-05-15T12:33:25;18.40;99.90
40756;DHT22;26461;45.630;9.418;2023-05-15T12:36:45;18.50;99.90
40756;DHT22;26461;45.630;9.418;2023-05-15T12:40:08;18.60;99.90
40756;DHT22;26461;45.630;9.418;2023-05-15T12:43:23;18.70;99.90
40756;DHT22;26461;45.630;9.418;2023-05-15T12:46:29;18.80;99.90
40756;DHT22;26461;45.630;9.418;2023-05-15T12:49:46;18.80;99.90
40756;DHT22;26461;45.630;9.418;2023-05-15T12:53:00;18.90;99.90
40756;DHT22;26461;45.630;9.418;2023-05-15T12:56:15;18.90;99.90
40756;DHT22;26461;45.630;9.418;2023-05-15T12:59:24;19.00;99.90
40756;DHT22;26461;45.630;9.418;2023-05-15T13:02:38;19.00;99.90
40756;DHT22;26461;45.630;9.418;2023-05-15T13:05:54;19.00;99.90
40756;DHT22;26461;45.630;9.418;2023-05-15T13:09:13;19.10;99.90
40756;DHT22;26461;45.630;9.418;2023-05-15T13:12:44;19.20;99.90
40756;DHT22;26461;45.630;9.418;2023-05-15T13:16:04;19.20;99.90
40756;DHT22;26461;45.630;9.418;2023-05-15T13:19:19;19.30;99.90
40756;DHT22;26461;45.630;9.418;2023-05-15T13:22:36;19.40;99.90
40756;DHT22;26461;45.630;9.418;2023-05-15T13:25:46;19.40;99.90
40756;DHT22;26461;45.630;9.418;2023-05-15T13:29:05;19.50;99.90
40756;DHT22;26461;45.630;9.418;2023-05-15T13:32:28;19.50;99.90
40756;DHT22;26461;45.630;9.418;2023-05-15T13:35:41;19.60;99.90
40756;DHT22;26461;45.630;9.418;2023-05-15T13:38:57;19.70;99.90
40756;DHT22;26461;45.630;9.418;2023-05-15T13:42:26;19.70;99.90
40756;DHT22;26461;45.630;9.418;2023-05-15T13:45:34;19.80;99.90
40756;DHT22;26461;45.630;9.418;2023-05-15T13:48:49;19.90;99.90
40756;DHT22;26461;45.630;9.418;2023-05-15T13:52:02;20.00;99.90
40756;DHT22;26461;45.630;9.418;2023-05-15T13:55:09;20.10;99.90
40756;DHT22;26461;45.630;9.418;2023-05-15T13:58:22;20.20;99.60
40756;DHT22;26461;45.630;9.418;2023-05-15T14:01:36;20.30;99.70
40756;DHT22;26461;45.630;9.418;2023-05-15T14:04:48;20.50;99.60
40756;DHT22;26461;45.630;9.418;2023-05-15T14:08:04;20.60;99.30
40756;DHT22;26461;45.630;9.418;2023-05-15T14:11:21;20.80;98.90
40756;DHT22;26461;45.630;9.418;2023-05-15T14:14:50;20.90;99.00
40756;DHT22;26461;45.630;9.418;2023-05-15T14:18:18;21.10;96.90
40756;DHT22;26461;45.630;9.418;2023-05-15T14:21:29;21.10;96.90
40756;DHT22;26461;45.630;9.418;2023-05-15T14:24:44;21.20;97.00
40756;DHT22;26461;45.630;9.418;2023-05-15T14:28:00;21.30;97.20
40756;DHT22;26461;45.630;9.418;2023-05-15T14:31:12;21.40;96.90
40756;DHT22;26461;45.630;9.418;2023-05-15T14:34:26;21.50;96.60
40756;DHT22;26461;45.630;9.418;2023-05-15T14:37:39;21.50;96.30
40756;DHT22;26461;45.630;9.418;2023-05-15T14:40:56;21.60;95.50
40756;DHT22;26461;45.630;9.418;2023-05-15T14:44:12;21.70;95.60
40756;DHT22;26461;45.630;9.418;2023-05-15T14:47:25;21.80;95.20
40756;DHT22;26461;45.630;9.418;2023-05-15T14:50:46;21.90;95.00
40756;DHT22;26461;45.630;9.418;2023-05-15T14:54:02;22.00;94.40
40756;DHT22;26461;45.630;9.418;2023-05-15T14:57:15;22.10;95.00
40756;DHT22;26461;45.630;9.418;2023-05-15T15:00:40;22.20;94.40
40756;DHT22;26461;45.630;9.418;2023-05-15T15:03:50;22.30;94.30
40756;DHT22;26461;45.630;9.418;2023-05-15T15:07:04;22.50;94.40
40756;DHT22;26461;45.630;9.418;2023-05-15T15:10:20;22.50;94.10
40756;DHT22;26461;45.630;9.418;2023-05-15T15:13:31;22.70;94.00
40756;DHT22;26461;45.630;9.418;2023-05-15T15:16:51;22.80;94.00
40756;DHT22;26461;45.630;9.418;2023-05-15T15:20:07;22.90;93.90
40756;DHT22;26461;45.630;9.418;2023-05-15T15:23:15;23.00;93.80
40756;DHT22;26461;45.630;9.418;2023-05-15T15:26:34;23.10;93.30
40756;DHT22;26461;45.630;9.418;2023-05-15T15:29:53;23.20;93.40
40756;DHT22;26461;45.630;9.418;2023-05-15T15:33:04;23.30;92.90
40756;DHT22;26461;45.630;9.418;2023-05-15T15:36:27;23.50;92.40
40756;DHT22;26461;45.630;9.418;2023-05-15T15:39:47;23.60;92.00
40756;DHT22;26461;45.630;9.418;2023-05-15T15:42:57;23.70;91.40
40756;DHT22;26461;45.630;9.418;2023-05-15T15:46:11;23.80;91.60
40756;DHT22;26461;45.630;9.418;2023-05-15T15:49:26;23.90;91.20
40756;DHT22;26461;45.630;9.418;2023-05-15T15:52:37;24.10;90.50
40756;DHT22;26461;45.630;9.418;2023-05-15T15:55:47;24.20;90.60
40756;DHT22;26461;45.630;9.418;2023-05-15T15:59:01;24.20;90.50
40756;DHT22;26461;45.630;9.418;2023-05-15T16:02:10;24.40;90.60
40756;DHT22;26461;45.630;9.418;2023-05-15T16:05:21;24.40;90.60
40756;DHT22;26461;45.630;9.418;2023-05-15T16:08:28;24.50;89.40
40756;DHT22;26461;45.630;9.418;2023-05-15T16:11:44;24.60;89.40
40756;DHT22;26461;45.630;9.418;2023-05-15T16:14:59;24.70;89.60
40756;DHT22;26461;45.630;9.418;2023-05-15T16:18:18;24.70;89.60
40756;DHT22;26461;45.630;9.418;2023-05-15T16:21:35;24.80;90.10
40756;DHT22;26461;45.630;9.418;2023-05-15T16:24:55;24.90;90.10
40756;DHT22;26461;45.630;9.418;2023-05-15T16:28:10;25.00;87.80
40756;DHT22;26461;45.630;9.418;2023-05-15T16:31:20;25.00;87.20
40756;DHT22;26461;45.630;9.418;2023-05-15T16:34:33;25.00;86.30
40756;DHT22;26461;45.630;9.418;2023-05-15T16:37:38;25.00;83.20
40756;DHT22;26461;45.630;9.418;2023-05-15T16:40:55;25.00;83.10
40756;DHT22;26461;45.630;9.418;2023-05-15T16:44:13;25.00;82.80
40756;DHT22;26461;45.630;9.418;2023-05-15T16:47:31;25.00;83.60
40756;DHT22;26461;45.630;9.418;2023-05-15T16:50:41;25.10;83.90
40756;DHT22;26461;45.630;9.418;2023-05-15T16:53:50;25.10;82.10
40756;DHT22;26461;45.630;9.418;2023-05-15T16:57:07;25.10;81.70
40756;DHT22;26461;45.630;9.418;2023-05-15T17:00:21;25.10;80.60
40756;DHT22;26461;45.630;9.418;2023-05-15T17:03:39;25.20;80.40
40756;DHT22;26461;45.630;9.418;2023-05-15T17:06:49;25.10;78.30
40756;DHT22;26461;45.630;9.418;2023-05-15T17:10:10;25.10;79.00
40756;DHT22;26461;45.630;9.418;2023-05-15T17:13:26;25.10;79.20
40756;DHT22;26461;45.630;9.418;2023-05-15T17:16:42;25.10;78.90
40756;DHT22;26461;45.630;9.418;2023-05-15T17:19:54;25.10;78.60
40756;DHT22;26461;45.630;9.418;2023-05-15T17:23:10;25.10;79.30
40756;DHT22;26461;45.630;9.418;2023-05-15T17:26:25;25.10;79.80
40756;DHT22;26461;45.630;9.418;2023-05-15T17:29:38;25.10;78.80
40756;DHT22;26461;45.630;9.418;2023-05-15T17:32:50;25.00;80.50
40756;DHT22;26461;45.630;9.418;2023-05-15T17:36:03;25.00;81.70
40756;DHT22;26461;45.630;9.418;2023-05-15T17:39:19;25.00;82.40
40756;DHT22;26461;45.630;9.418;2023-05-15T17:42:35;24.90;82.00
40756;DHT22;26461;45.630;9.418;2023-05-15T17:45:48;24.90;82.40
40756;DHT22;26461;45.630;9.418;2023-05-15T17:48:53;24.70;82.70
40756;DHT22;26461;45.630;9.418;2023-05-15T17:52:06;24.60;83.60
40756;DHT22;26461;45.630;9.418;2023-05-15T17:55:12;24.60;83.60
40756;DHT22;26461;45.630;9.418;2023-05-15T17:58:25;24.50;84.10
40756;DHT22;26461;45.630;9.418;2023-05-15T18:01:38;24.40;84.60
40756;DHT22;26461;45.630;9.418;2023-05-15T18:04:53;24.40;84.60
40756;DHT22;26461;45.630;9.418;2023-05-15T18:08:14;24.30;84.50
40756;DHT22;26461;45.630;9.418;2023-05-15T18:11:20;24.20;85.00
40756;DHT22;26461;45.630;9.418;2023-05-15T18:14:34;24.20;84.90
40756;DHT22;26461;45.630;9.418;2023-05-15T18:17:52;24.10;85.00
40756;DHT22;26461;45.630;9.418;2023-05-15T18:21:06;24.10;86.00
40756;DHT22;26461;45.630;9.418;2023-05-15T18:24:18;24.00;85.70
40756;DHT22;26461;45.630;9.418;2023-05-15T18:27:24;23.80;85.80
40756;DHT22;26461;45.630;9.418;2023-05-15T18:30:29;23.70;86.10
40756;DHT22;26461;45.630;9.418;2023-05-15T18:33:43;23.70;86.90
40756;DHT22;26461;45.630;9.418;2023-05-15T18:36:54;23.60;87.90
40756;DHT22;26461;45.630;9.418;2023-05-15T18:40:10;23.40;88.40
40756;DHT22;26461;45.630;9.418;2023-05-15T18:43:26;23.30;88.70
40756;DHT22;26461;45.630;9.418;2023-05-15T18:46:42;23.10;89.30
40756;DHT22;26461;45.630;9.418;2023-05-15T18:50:00;22.90;89.80
40756;DHT22;26461;45.630;9.418;2023-05-15T18:53:13;22.80;90.30
40756;DHT22;26461;45.630;9.418;2023-05-15T18:56:26;22.60;90.80
40756;DHT22;26461;45.630;9.418;2023-05-15T18:59:38;22.40;91.20
40756;DHT22;26461;45.630;9.418;2023-05-15T19:02:49;22.30;91.40
40756;DHT22;26461;45.630;9.418;2023-05-15T19:06:08;22.20;91.60
40756;DHT22;26461;45.630;9.418;2023-05-15T19:09:23;22.00;91.80
40756;DHT22;26461;45.630;9.418;2023-05-15T19:12:33;21.90;92.00
40756;DHT22;26461;45.630;9.418;2023-05-15T19:15:55;21.90;92.20
40756;DHT22;26461;45.630;9.418;2023-05-15T19:19:05;21.80;92.40
40756;DHT22;26461;45.630;9.418;2023-05-15T19:22:17;21.70;92.50
40756;DHT22;26461;45.630;9.418;2023-05-15T19:25:30;21.60;92.70
40756;DHT22;26461;45.630;9.418;2023-05-15T19:28:43;21.50;92.90
40756;DHT22;26461;45.630;9.418;2023-05-15T19:31:49;21.40;93.10
40756;DHT22;26461;45.630;9.418;2023-05-15T19:35:04;21.30;93.30
40756;DHT22;26461;45.630;9.418;2023-05-15T19:38:22;21.20;93.60
40756;DHT22;26461;45.630;9.418;2023-05-15T19:41:29;21.10;93.90
40756;DHT22;26461;45.630;9.418;2023-05-15T19:44:42;21.00;94.20
40756;DHT22;26461;45.630;9.418;2023-05-15T19:47:56;21.00;94.40
40756;DHT22;26461;45.630;9.418;2023-05-15T19:51:08;20.90;94.60
40756;DHT22;26461;45.630;9.418;2023-05-15T19:54:21;20.80;94.90
40756;DHT22;26461;45.630;9.418;2023-05-15T19:57:32;20.70;95.10
40756;DHT22;26461;45.630;9.418;2023-05-15T20:00:43;20.70;95.20
40756;DHT22;26461;45.630;9.418;2023-05-15T20:04:03;20.60;95.30
40756;DHT22;26461;45.630;9.418;2023-05-15T20:07:19;20.60;95.50
40756;DHT22;26461;45.630;9.418;2023-05-15T20:10:35;20.50;95.60
40756;DHT22;26461;45.630;9.418;2023-05-15T20:13:53;20.50;95.70
40756;DHT22;26461;45.630;9.418;2023-05-15T20:17:10;20.40;95.80
40756;DHT22;26461;45.630;9.418;2023-05-15T20:20:28;20.30;96.00
40756;DHT22;26461;45.630;9.418;2023-05-15T20:23:42;20.30;96.30
40756;DHT22;26461;45.630;9.418;2023-05-15T20:27:01;20.20;96.50
40756;DHT22;26461;45.630;9.418;2023-05-15T20:30:14;20.20;96.60
40756;DHT22;26461;45.630;9.418;2023-05-15T20:33:25;20.10;96.70
40756;DHT22;26461;45.630;9.418;2023-05-15T20:36:30;20.10;96.70
40756;DHT22;26461;45.630;9.418;2023-05-15T20:39:47;20.10;96.70
40756;DHT22;26461;45.630;9.418;2023-05-15T20:43:05;20.00;96.80
40756;DHT22;26461;45.630;9.418;2023-05-15T20:46:23;20.00;96.80